Time;durP1;ratioP1;P1;durP2;ratioP2;P2;SDS_P1;SDS_P2;PMS_P1;PMS_P2;Temp;Humidity;BMP_temperature;BMP_pressure;BME280_temperature;BME280_humidity;BME280_pressure;Samples;Min_cycle;Max_cycle;Signal;HPM_P1;HPM_P2
2022/02/10 00:18:47;;;;;;;27.17;17.40;;;8.90;99.90;;;;;;5137964;27;20027;-76
2022/02/10 00:21:18;;;;;;;24.83;16.52;;;8.90;99.90;;;;;;5136546;27;20474;-75
2022/02/10 00:34:59;;;;;;;28.77;17.73;;;8.90;99.90;;;;;;5135723;27;20059;-76
2022/02/10 00:37:35;;;;;;;26.02;16.80;;;8.90;99.90;;;;;;5136423;27;20501;-76
2022/02/10 00:42:31;;;;;;;28.02;16.42;;;8.90;99.90;;;;;;5135696;27;20035;-75
2022/02/10 00:44:56;;;;;;;23.75;16.25;;;8.80;99.90;;;;;;5136120;27;20083;-75
2022/02/10 00:47:22;;;;;;;23.73;15.63;;;8.80;99.90;;;;;;5136877;27;20047;-76
2022/02/10 00:49:48;;;;;;;29.55;16.67;;;8.80;99.90;;;;;;5135544;27;20197;-75
2022/02/10 00:52:14;;;;;;;27.23;17.30;;;8.80;99.90;;;;;;5136274;27;20058;-75
2022/02/10 00:54:40;;;;;;;25.73;16.10;;;8.80;99.90;;;;;;5136592;27;20037;-76
2022/02/10 00:57:09;;;;;;;27.95;16.90;;;8.80;99.90;;;;;;5135827;27;20023;-75
2022/02/10 01:00:03;;;;;;;27.67;16.45;;;8.80;99.90;;;;;;5135846;27;20023;-75
2022/02/10 01:07:02;;;;;;;25.58;16.52;;;8.80;99.90;;;;;;5135075;27;20418;-76
2022/02/10 01:11:08;;;;;;;24.75;17.08;;;8.70;99.90;;;;;;5135317;27;20096;-76
2022/02/10 01:24:32;;;;;;;27.55;17.17;;;8.70;99.90;;;;;;5135424;27;20026;-76
2022/02/10 01:29:45;;;;;;;33.38;19.48;;;8.60;99.90;;;;;;5138793;27;20034;-77
2022/02/10 01:32:12;;;;;;;34.63;19.30;;;8.60;99.90;;;;;;5134933;27;20454;-77
2022/02/10 01:34:50;;;;;;;33.00;18.92;;;8.60;99.90;;;;;;5134867;27;20110;-77
2022/02/10 01:37:17;;;;;;;30.67;17.30;;;8.60;99.90;;;;;;5135325;27;20034;-75
2022/02/10 01:39:50;;;;;;;34.58;18.40;;;8.50;99.90;;;;;;5137073;27;20023;-76
2022/02/10 01:42:56;;;;;;;31.98;18.80;;;8.50;99.90;;;;;;5136671;27;20027;-75
2022/02/10 02:04:22;;;;;;;38.25;19.58;;;8.50;99.90;;;;;;5134239;27;20077;-76
2022/02/10 02:06:50;;;;;;;35.22;19.35;;;8.40;99.90;;;;;;5134344;27;20028;-77
2022/02/10 02:09:18;;;;;;;34.95;20.75;;;8.50;99.90;;;;;;5134290;27;20019;-76
2022/02/10 02:11:46;;;;;;;36.10;20.75;;;8.50;99.90;;;;;;5134407;27;20038;-76
2022/02/10 02:14:14;;;;;;;48.38;23.00;;;8.40;99.90;;;;;;5133545;27;20402;-77
2022/02/10 02:17:03;;;;;;;42.67;22.67;;;8.40;99.90;;;;;;5134679;27;20027;-77
2022/02/10 02:19:31;;;;;;;45.03;23.23;;;8.50;99.90;;;;;;5134200;27;20423;-77
2022/02/10 02:22:05;;;;;;;40.47;21.05;;;8.50;99.90;;;;;;5134236;27;20042;-77
2022/02/10 02:24:31;;;;;;;40.88;21.55;;;8.40;99.90;;;;;;5134292;28;20088;-77
2022/02/10 02:27:01;;;;;;;30.48;19.10;;;7.80;99.90;;;;;;5134271;28;20462;-76
2022/02/10 02:29:32;;;;;;;30.27;18.83;;;8.40;99.90;;;;;;5133749;27;20513;-76
2022/02/10 02:32:03;;;;;;;35.38;19.20;;;8.40;99.90;;;;;;5134981;27;20075;-75
2022/02/10 02:35:01;;;;;;;38.75;20.25;;;8.40;99.90;;;;;;5133790;28;20440;-76
2022/02/10 03:04:53;;;;;;;36.05;19.23;;;8.40;99.90;;;;;;5140456;27;20108;-76
2022/02/10 03:07:33;;;;;;;36.72;19.83;;;8.40;99.90;;;;;;5147591;27;20027;-76
2022/02/10 03:10:16;;;;;;;;;;;8.40;99.90;;;;;;5123058;27;20031;-76
2022/02/10 03:12:41;;;;;;;39.15;20.73;;;8.40;99.90;;;;;;5118376;28;19939;-76
2022/02/10 03:15:17;;;;;;;36.88;19.75;;;8.40;99.90;;;;;;5118402;28;20012;-76
2022/02/10 03:17:57;;;;;;;42.22;20.75;;;8.40;99.90;;;;;;5117514;28;20058;-75
2022/02/10 04:04:33;;;;;;;26.63;16.75;;;8.30;99.90;;;;;;5115895;28;20070;-77
2022/02/10 04:58:03;;;;;;;57.63;24.60;;;8.40;99.90;;;;;;5114578;28;20051;-76
2022/02/10 05:01:19;;;;;;;61.63;25.33;;;8.40;99.90;;;;;;5115262;28;20028;-77
2022/02/10 05:12:23;;;;;;;69.25;25.02;;;8.30;99.90;;;;;;5115086;28;20065;-77
2022/02/10 05:20:10;;;;;;;72.70;24.88;;;8.20;99.90;;;;;;5115959;28;20069;-77
2022/02/10 05:23:19;;;;;;;70.60;24.10;;;8.20;99.90;;;;;;5116025;28;20061;-77
2022/02/10 05:33:53;;;;;;;63.75;23.42;;;8.10;99.90;;;;;;5116866;28;20130;-78
2022/02/10 05:36:22;;;;;;;72.65;24.70;;;8.10;99.90;;;;;;5115263;28;20123;-77
2022/02/10 05:38:54;;;;;;;62.35;22.95;;;8.10;99.90;;;;;;5113610;28;20480;-77
2022/02/10 05:41:52;;;;;;;65.07;22.63;;;8.10;99.90;;;;;;5115454;28;20020;-77
2022/02/10 05:52:31;;;;;;;61.88;22.63;;;8.00;99.90;;;;;;5114432;28;20073;-77
2022/02/10 05:54:55;;;;;;;64.57;22.25;;;8.10;99.90;;;;;;5114830;28;20398;-77
2022/02/10 06:03:03;;;;;;;31.48;14.07;;;8.10;99.90;;;;;;5114689;28;20467;-76
2022/02/10 07:08:24;;;;;;;8.52;6.85;;;7.00;99.90;;;;;;5131041;27;20080;-79
2022/02/10 07:13:43;;;;;;;7.47;6.03;;;7.00;99.90;;;;;;5133409;28;20023;-78
2022/02/10 07:46:57;;;;;;;9.93;6.95;;;7.00;99.90;;;;;;5123628;27;20027;-78
2022/02/10 08:27:37;;;;;;;4.35;3.80;;;7.10;99.90;;;;;;5120248;28;20468;-77
2022/02/10 08:59:42;;;;;;;9.15;3.45;;;7.50;99.90;;;;;;5117557;28;20057;-77
2022/02/10 09:02:21;;;;;;;11.57;3.95;;;7.60;99.90;;;;;;5117394;28;20019;-80
2022/02/10 09:07:51;;;;;;;8.70;3.63;;;7.80;99.90;;;;;;5134956;27;20212;-79
2022/02/10 09:10:53;;;;;;;9.60;3.92;;;7.80;99.90;;;;;;5135391;27;20054;-76
2022/02/10 10:04:16;;;;;;;13.32;3.95;;;8.50;99.90;;;;;;5135551;27;20047;-76
2022/02/10 10:09:45;;;;;;;7.53;2.42;;;8.60;99.90;;;;;;5120907;27;20042;-76
2022/02/10 10:12:42;;;;;;;9.45;3.38;;;8.70;99.90;;;;;;5132938;27;20031;-78
2022/02/10 10:23:48;;;;;;;5.15;2.22;;;8.90;99.90;;;;;;5135810;27;20020;-80
2022/02/10 10:56:25;;;;;;;9.52;2.63;;;9.20;99.90;;;;;;5136025;28;20070;-78
2022/02/10 11:05:11;;;;;;;10.43;2.63;;;9.20;99.90;;;;;;5132003;28;20055;-80
2022/02/10 11:38:30;;;;;;;6.50;3.63;;;9.20;99.90;;;;;;5129151;27;20039;-80
2022/02/10 11:46:43;;;;;;;16.63;4.25;;;9.20;99.90;;;;;;5124491;27;20034;-80
2022/02/10 11:59:55;;;;;;;21.00;7.78;;;9.20;99.90;;;;;;5119685;28;20065;-80
2022/02/10 12:01:31;;;;;;;9.43;2.30;;;9.40;99.90;;;;;;5121341;27;20077;-79
2022/02/10 12:35:58;;;;;;;9.25;1.80;;;9.20;99.90;;;;;;5130903;27;20127;-80
2022/02/10 14:15:03;;;;;;;5.75;1.20;;;8.90;99.90;;;;;;5118439;28;20596;-84
2022/02/10 14:17:33;;;;;;;6.40;1.10;;;8.90;99.90;;;;;;5119320;28;20032;-80
2022/02/10 14:20:01;;;;;;;1.95;1.20;;;8.90;99.90;;;;;;5117761;28;20111;-84
2022/02/10 14:27:43;;;;;;;4.78;1.98;;;8.80;99.90;;;;;;5118564;28;20068;-83
2022/02/10 14:30:09;;;;;;;2.90;0.93;;;8.80;99.90;;;;;;5117845;28;20011;-84
2022/02/10 14:32:41;;;;;;;6.70;1.45;;;8.80;99.90;;;;;;5117852;28;20567;-83
2022/02/10 14:35:14;;;;;;;3.83;1.20;;;8.80;99.90;;;;;;5116932;28;20032;-82
2022/02/10 15:16:27;;;;;;;2.97;1.00;;;8.50;99.90;;;;;;5121132;28;20368;-82
2022/02/10 16:12:34;;;;;;;8.10;2.45;;;7.60;99.90;;;;;;5138075;27;20435;-77
2022/02/10 16:17:14;;;;;;;4.57;1.30;;;7.50;99.90;;;;;;5131753;27;20038;-77
2022/02/10 16:19:41;;;;;;;7.88;2.92;;;7.50;99.90;;;;;;5126573;27;20031;-78
2022/02/10 16:24:47;;;;;;;3.78;1.77;;;7.40;99.90;;;;;;5126088;27;20407;-78
2022/02/10 16:27:17;;;;;;;9.73;1.50;;;7.30;99.90;;;;;;5125915;27;20023;-76
2022/02/10 16:29:46;;;;;;;8.43;1.70;;;7.30;99.90;;;;;;5127358;27;20023;-77
2022/02/10 16:32:12;;;;;;;8.00;1.83;;;7.30;99.90;;;;;;5128021;27;20507;-78
2022/02/10 16:34:43;;;;;;;8.82;1.42;;;7.20;99.90;;;;;;5124684;27;20031;-77
2022/02/10 16:37:10;;;;;;;7.03;1.40;;;7.20;99.90;;;;;;5125830;27;20102;-77
2022/02/10 16:39:37;;;;;;;7.35;1.35;;;7.20;99.90;;;;;;5125255;27;20104;-76
2022/02/10 16:42:05;;;;;;;5.28;1.30;;;7.10;99.90;;;;;;5123680;27;20035;-76
2022/02/10 16:44:30;;;;;;;5.07;1.58;;;7.10;99.90;;;;;;5124333;27;20102;-76
2022/02/10 16:46:56;;;;;;;5.85;1.48;;;7.20;99.90;;;;;;5127023;27;20099;-76
2022/02/10 16:49:23;;;;;;;5.90;1.30;;;7.10;99.90;;;;;;5124852;27;20098;-76
2022/02/10 16:51:48;;;;;;;7.55;1.45;;;7.10;99.90;;;;;;5119471;27;20008;-76
2022/02/10 16:54:25;;;;;;;10.25;1.58;;;7.10;99.90;;;;;;5126889;27;20033;-76
2022/02/10 16:57:07;;;;;;;9.52;2.63;;;7.00;99.90;;;;;;5130827;27;20030;-77
2022/02/10 17:18:49;;;;;;;8.32;2.35;;;6.80;99.90;;;;;;5133787;27;20038;-75
2022/02/10 17:21:29;;;;;;;7.13;1.38;;;6.70;99.90;;;;;;5127389;27;20110;-76
2022/02/10 17:27:03;;;;;;;7.10;1.75;;;6.60;99.90;;;;;;5131279;27;20041;-77
2022/02/10 17:29:41;;;;;;;6.18;1.38;;;6.60;99.90;;;;;;5133109;27;20087;-77
2022/02/10 17:32:29;;;;;;;6.88;2.42;;;6.60;99.90;;;;;;5132684;27;20027;-76
2022/02/10 17:41:18;;;;;;;9.90;1.95;;;6.70;99.90;;;;;;5133228;27;20122;-74
2022/02/10 17:46:05;;;;;;;5.47;1.55;;;6.60;99.90;;;;;;5121118;27;20073;-76
2022/02/10 17:54:02;;;;;;;13.82;2.13;;;6.60;99.90;;;;;;5118806;27;20398;-76
2022/02/10 17:56:29;;;;;;;5.95;1.90;;;6.50;99.90;;;;;;5120001;27;20025;-76
2022/02/10 17:58:55;;;;;;;15.80;2.25;;;6.50;99.90;;;;;;5121547;27;20530;-78
2022/02/10 18:01:21;;;;;;;10.05;1.45;;;6.50;99.90;;;;;;5122466;27;20027;-76
2022/02/10 18:03:47;;;;;;;10.13;1.58;;;6.50;99.90;;;;;;5120417;27;20066;-77
2022/02/10 18:08:45;;;;;;;6.45;1.63;;;6.40;99.90;;;;;;5132962;27;20573;-77
2022/02/10 18:14:07;;;;;;;8.32;1.98;;;6.40;99.90;;;;;;5122464;27;20120;-77
2022/02/10 18:16:46;;;;;;;8.88;1.83;;;6.40;99.90;;;;;;5123018;27;20024;-77
2022/02/10 18:19:18;;;;;;;5.18;2.38;;;6.30;99.90;;;;;;5116205;27;20024;-76
2022/02/10 18:36:10;;;;;;;8.10;1.63;;;6.40;99.90;;;;;;5114032;28;20153;-74
2022/02/10 19:09:43;;;;;;;5.80;1.85;;;5.80;99.90;;;;;;5133316;27;20076;-75
2022/02/10 19:12:24;;;;;;;6.05;2.35;;;5.80;99.90;;;;;;5133061;28;20023;-74
2022/02/10 19:15:04;;;;;;;5.55;1.48;;;5.90;99.90;;;;;;5133124;28;20035;-74
2022/02/10 19:17:30;;;;;;;8.60;2.38;;;6.00;99.90;;;;;;5133419;28;20027;-74
2022/02/10 19:19:56;;;;;;;5.97;2.15;;;6.00;99.90;;;;;;5133426;28;20038;-75
2022/02/10 19:22:21;;;;;;;5.45;1.95;;;6.00;99.90;;;;;;5132990;28;20110;-74
2022/02/10 19:24:48;;;;;;;5.60;2.42;;;6.00;99.90;;;;;;5119921;28;20102;-75
2022/02/10 19:27:16;;;;;;;7.70;2.13;;;6.00;99.90;;;;;;5112149;28;20031;-76
2022/02/10 19:29:42;;;;;;;10.70;2.95;;;6.20;99.90;;;;;;5112044;28;20028;-76
2022/02/10 19:32:13;;;;;;;9.98;2.25;;;6.10;99.90;;;;;;5113747;28;20036;-75
2022/02/10 19:34:39;;;;;;;7.38;1.95;;;6.00;99.90;;;;;;5112396;28;20123;-75
2022/02/10 19:37:04;;;;;;;7.20;2.33;;;6.00;99.90;;;;;;5116695;28;20059;-74
2022/02/10 19:39:30;;;;;;;12.60;2.25;;;6.10;99.90;;;;;;5116125;28;20047;-75
2022/02/10 19:41:56;;;;;;;15.52;2.38;;;6.10;99.90;;;;;;5116063;28;20462;-75
2022/02/10 19:44:21;;;;;;;5.95;2.60;;;6.10;99.90;;;;;;5116342;28;20025;-75
2022/02/10 19:46:47;;;;;;;6.22;2.10;;;6.10;99.90;;;;;;5116633;28;20409;-74
2022/02/10 19:49:20;;;;;;;15.10;2.53;;;6.10;99.90;;;;;;5115945;28;20031;-76
2022/02/10 19:51:46;;;;;;;8.07;2.42;;;6.00;99.90;;;;;;5116676;28;20028;-75
2022/02/10 19:54:14;;;;;;;9.60;2.13;;;6.00;99.90;;;;;;5116420;28;20043;-74
2022/02/10 19:56:40;;;;;;;5.82;2.45;;;6.00;99.90;;;;;;5115345;28;20028;-74
2022/02/10 19:59:07;;;;;;;14.25;1.92;;;5.90;99.90;;;;;;5116054;28;20031;-74
2022/02/10 20:01:32;;;;;;;4.25;1.88;;;5.90;99.90;;;;;;5122037;27;20030;-77
2022/02/10 20:04:03;;;;;;;18.63;2.38;;;5.90;99.90;;;;;;5127057;27;20035;-75
2022/02/10 20:06:28;;;;;;;;;;;6.00;99.90;;;;;;5115553;28;20019;-75
2022/02/10 20:08:54;;;;;;;4.47;1.73;;;6.00;99.90;;;;;;5114961;28;20057;-75
2022/02/10 20:11:19;;;;;;;8.25;1.85;;;6.00;99.90;;;;;;5114262;28;20034;-76
2022/02/10 20:13:45;;;;;;;6.22;2.38;;;6.00;99.90;;;;;;5115245;28;20031;-75
2022/02/10 20:16:11;;;;;;;8.90;1.98;;;6.00;99.90;;;;;;5115826;28;20030;-75
2022/02/10 20:18:37;;;;;;;11.65;2.65;;;6.00;99.90;;;;;;5115523;28;20478;-75
2022/02/10 20:21:04;;;;;;;6.43;1.98;;;5.90;99.90;;;;;;5116190;28;20049;-75
2022/02/10 20:23:33;;;;;;;6.07;2.35;;;6.00;99.90;;;;;;5115344;28;20502;-76
2022/02/10 20:25:59;;;;;;;7.07;1.80;;;6.00;99.90;;;;;;5114889;28;20571;-75
2022/02/10 20:28:27;;;;;;;11.73;2.35;;;6.00;99.90;;;;;;5115566;28;20063;-75
2022/02/10 20:30:52;;;;;;;10.43;2.03;;;6.00;99.90;;;;;;5115486;28;20031;-75
2022/02/10 20:33:21;;;;;;;5.78;1.75;;;6.00;99.90;;;;;;5114945;28;20471;-75
2022/02/10 20:35:50;;;;;;;4.72;2.05;;;6.00;99.90;;;;;;5115251;28;20023;-75
2022/02/10 20:38:18;;;;;;;6.10;2.08;;;6.00;99.90;;;;;;5113623;28;20035;-75
2022/02/10 20:40:46;;;;;;;6.18;1.77;;;6.00;99.90;;;;;;5114312;28;20020;-75
2022/02/10 20:43:12;;;;;;;5.75;1.92;;;6.00;99.90;;;;;;5115771;28;20031;-74
2022/02/10 20:45:40;;;;;;;12.38;1.90;;;6.00;99.90;;;;;;5114406;28;20536;-74
2022/02/10 20:48:07;;;;;;;8.13;1.42;;;6.10;99.90;;;;;;5114713;28;20031;-75
2022/02/10 20:50:33;;;;;;;6.13;1.50;;;6.10;99.90;;;;;;5115240;28;20023;-74
2022/02/10 20:52:58;;;;;;;4.70;1.67;;;6.00;99.90;;;;;;5114602;28;20375;-74
2022/02/10 20:55:25;;;;;;;7.07;1.80;;;5.90;99.90;;;;;;5114636;28;20042;-77
2022/02/10 20:57:51;;;;;;;5.10;1.52;;;5.90;99.90;;;;;;5115315;28;20611;-76
2022/02/10 21:00:18;;;;;;;8.23;1.80;;;6.00;99.90;;;;;;5113810;28;20047;-75
2022/02/10 21:02:48;;;;;;;5.13;1.83;;;6.00;99.90;;;;;;5114341;28;20042;-74
2022/02/10 21:05:28;;;;;;;9.45;1.63;;;5.90;99.90;;;;;;5113464;28;20124;-74
2022/02/10 21:08:04;;;;;;;8.27;1.83;;;5.80;99.90;;;;;;5114476;28;20111;-75
2022/02/10 21:10:30;;;;;;;5.00;2.15;;;5.90;99.90;;;;;;5114485;27;20016;-74
2022/02/10 21:12:56;;;;;;;7.28;1.90;;;5.80;99.90;;;;;;5113973;27;20421;-76
2022/02/10 21:15:28;;;;;;;8.23;1.88;;;5.70;99.90;;;;;;5112648;28;20076;-74
2022/02/10 21:17:59;;;;;;;5.00;1.77;;;5.70;99.90;;;;;;5116259;28;20471;-75
2022/02/10 21:20:28;;;;;;;14.10;2.05;;;5.70;99.90;;;;;;5116464;27;20543;-75
2022/02/10 21:23:02;;;;;;;8.50;1.73;;;5.70;99.90;;;;;;5114118;28;20040;-75
2022/02/10 21:25:33;;;;;;;10.18;2.45;;;5.60;99.90;;;;;;5113552;28;20114;-75
2022/02/10 21:28:03;;;;;;;;;;;5.50;99.90;;;;;;5113697;28;20043;-75
2022/02/10 21:30:28;;;;;;;6.33;1.47;;;5.60;99.90;;;;;;5114362;28;19903;-75
2022/02/10 21:32:57;;;;;;;3.38;1.20;;;5.50;99.90;;;;;;5114870;28;20096;-75
2022/02/10 21:35:28;;;;;;;7.82;1.60;;;5.60;99.90;;;;;;5114912;28;20027;-75
2022/02/10 21:38:15;;;;;;;8.32;1.98;;;5.50;99.90;;;;;;5115081;28;20072;-75
2022/02/10 21:41:12;;;;;;;7.18;1.42;;;5.50;99.90;;;;;;5114182;28;20480;-75
2022/02/10 21:54:37;;;;;;;13.98;2.58;;;5.30;99.90;;;;;;5113640;28;20116;-76
2022/02/10 22:05:50;;;;;;;10.77;2.60;;;5.30;99.90;;;;;;5112690;28;20047;-74
2022/02/10 22:18:34;;;;;;;13.15;1.92;;;5.40;99.90;;;;;;5113720;28;20125;-74
2022/02/10 22:21:03;;;;;;;9.80;1.55;;;5.40;99.90;;;;;;5114468;28;20016;-74
2022/02/10 22:23:30;;;;;;;3.75;1.50;;;5.30;99.90;;;;;;5114257;28;20024;-76
2022/02/10 22:26:03;;;;;;;3.85;1.50;;;5.30;99.90;;;;;;5116602;28;20038;-75
2022/02/10 22:28:37;;;;;;;11.63;1.88;;;5.20;99.90;;;;;;5112933;28;20024;-75
2022/02/10 22:31:30;;;;;;;8.90;1.45;;;5.30;99.90;;;;;;5112477;28;20020;-75
2022/02/10 22:36:28;;;;;;;10.38;1.88;;;5.20;99.90;;;;;;5115807;28;20024;-73
2022/02/10 22:38:59;;;;;;;7.40;2.03;;;5.80;99.90;;;;;;5128481;27;20057;-76
2022/02/10 22:41:25;;;;;;;13.57;1.70;;;5.20;99.90;;;;;;5128623;27;20035;-76
2022/02/10 22:43:51;;;;;;;10.43;1.80;;;5.30;99.90;;;;;;5133392;28;20023;-76
2022/02/10 22:46:19;;;;;;;10.93;1.73;;;5.30;99.90;;;;;;5133213;28;20088;-75
2022/02/10 22:48:48;;;;;;;9.30;1.65;;;5.20;99.90;;;;;;5134356;28;20039;-76
2022/02/10 22:51:15;;;;;;;7.68;2.05;;;5.30;99.90;;;;;;5133357;27;20156;-75
2022/02/10 22:53:41;;;;;;;9.55;1.40;;;5.20;99.90;;;;;;5133534;28;20107;-76
2022/02/10 22:56:19;;;;;;;13.40;1.63;;;5.10;99.90;;;;;;5133245;27;20510;-75
2022/02/10 22:58:46;;;;;;;8.15;1.17;;;5.60;99.90;;;;;;5133381;27;20027;-76
2022/02/10 23:01:14;;;;;;;5.25;0.98;;;5.20;99.90;;;;;;5133978;27;20019;-76
2022/02/10 23:03:41;;;;;;;8.88;2.28;;;5.20;99.90;;;;;;5133907;28;20039;-75
2022/02/10 23:06:09;;;;;;;9.30;1.58;;;5.20;99.90;;;;;;5132980;27;20019;-76
2022/02/10 23:08:38;;;;;;;15.02;1.75;;;5.20;99.90;;;;;;5133271;27;20505;-76
2022/02/10 23:11:04;;;;;;;7.78;1.50;;;5.30;99.90;;;;;;5138201;27;20161;-75
2022/02/10 23:13:32;;;;;;;10.77;1.35;;;5.30;99.90;;;;;;5137847;27;20052;-76
2022/02/10 23:16:04;;;;;;;11.25;1.60;;;5.30;99.90;;;;;;5137793;27;20030;-76
2022/02/10 23:18:31;;;;;;;4.53;1.48;;;5.20;99.90;;;;;;5138078;27;20034;-75
2022/02/10 23:20:59;;;;;;;5.95;1.45;;;5.20;99.90;;;;;;5139224;27;20050;-75
2022/02/10 23:23:27;;;;;;;13.27;1.92;;;5.10;99.90;;;;;;5138137;27;20536;-75
2022/02/10 23:25:54;;;;;;;9.90;1.60;;;5.20;99.90;;;;;;5137650;27;20046;-76
2022/02/10 23:28:30;;;;;;;12.80;1.58;;;5.10;99.90;;;;;;5136914;27;20027;-75
2022/02/10 23:30:58;;;;;;;7.85;1.30;;;5.10;99.90;;;;;;5138237;27;20031;-75
2022/02/10 23:33:28;;;;;;;12.68;1.50;;;5.00;99.90;;;;;;5137851;27;20084;-76
2022/02/10 23:38:38;;;;;;;7.10;1.27;;;4.90;99.90;;;;;;5137899;27;20474;-75
2022/02/10 23:43:49;;;;;;;16.55;1.75;;;5.00;99.90;;;;;;5137283;27;20117;-76
2022/02/10 23:46:15;;;;;;;11.05;1.10;;;5.10;99.90;;;;;;5136684;27;20514;-75
2022/02/10 23:48:41;;;;;;;8.93;1.40;;;5.00;99.90;;;;;;5136808;27;20033;-76
2022/02/10 23:51:07;;;;;;;6.65;2.03;;;5.00;99.90;;;;;;5137851;27;20019;-76
2022/02/10 23:53:34;;;;;;;15.13;2.38;;;5.00;99.90;;;;;;5131933;27;20406;-75
2022/02/10 23:56:04;;;;;;;8.75;1.92;;;5.00;99.90;;;;;;5125343;27;20023;-76
2022/02/10 23:58:48;;;;;;;17.15;2.13;;;5.00;99.90;;;;;;5116886;28;20406;-75
